sensor_id;sensor_type;location;lat;lon;timestamp;pressure;altitude;pressure_sealevel;temperature;humidity
66857;BME280;53766;50.280;19.160;2023-08-01T00:00:03;97736.97;;;21.28;51.34
66857;BME280;53766;50.280;19.160;2023-08-01T00:02:32;97734.50;;;21.27;51.42
66857;BME280;53766;50.280;19.160;2023-08-01T00:05:00;97738.00;;;21.27;51.43
66857;BME280;53766;50.280;19.160;2023-08-01T00:07:28;97736.16;;;21.28;51.41
66857;BME280;53766;50.280;19.160;2023-08-01T00:09:56;97728.34;;;21.26;51.49
66857;BME280;53766;50.280;19.160;2023-08-01T00:12:24;97734.78;;;21.25;51.39
66857;BME280;53766;50.280;19.160;2023-08-01T00:14:52;97735.56;;;21.26;51.39
66857;BME280;53766;50.280;19.160;2023-08-01T00:17:19;97723.00;;;21.26;51.37
66857;BME280;53766;50.280;19.160;2023-08-01T00:19:48;97723.22;;;21.25;51.43
66857;BME280;53766;50.280;19.160;2023-08-01T00:22:15;97718.69;;;21.25;51.43
66857;BME280;53766;50.280;19.160;2023-08-01T00:24:43;97722.19;;;21.26;51.40
66857;BME280;53766;50.280;19.160;2023-08-01T00:27:10;97721.38;;;21.25;51.43
66857;BME280;53766;50.280;19.160;2023-08-01T00:29:38;97725.09;;;21.24;51.50
66857;BME280;53766;50.280;19.160;2023-08-01T00:32:06;97719.16;;;21.22;51.49
66857;BME280;53766;50.280;19.160;2023-08-01T00:34:33;97713.81;;;21.22;51.54
66857;BME280;53766;50.280;19.160;2023-08-01T00:37:01;97711.63;;;21.19;51.59
66857;BME280;53766;50.280;19.160;2023-08-01T00:39:28;97708.38;;;21.17;51.61
66857;BME280;53766;50.280;19.160;2023-08-01T00:41:56;97702.22;;;21.16;51.56
66857;BME280;53766;50.280;19.160;2023-08-01T00:44:23;97696.00;;;21.16;51.56
66857;BME280;53766;50.280;19.160;2023-08-01T00:46:51;97698.97;;;21.14;51.49
66857;BME280;53766;50.280;19.160;2023-08-01T00:49:19;97692.75;;;21.14;51.48
66857;BME280;53766;50.280;19.160;2023-08-01T00:51:46;97693.84;;;21.13;51.54
66857;BME280;53766;50.280;19.160;2023-08-01T00:54:15;97684.16;;;21.12;51.57
66857;BME280;53766;50.280;19.160;2023-08-01T00:56:42;97682.53;;;21.11;51.63
66857;BME280;53766;50.280;19.160;2023-08-01T00:59:12;97669.38;;;21.09;51.54
66857;BME280;53766;50.280;19.160;2023-08-01T01:01:40;97668.59;;;21.09;51.62
66857;BME280;53766;50.280;19.160;2023-08-01T01:04:08;97660.56;;;21.09;51.60
66857;BME280;53766;50.280;19.160;2023-08-01T01:06:45;97666.72;;;21.09;51.64
66857;BME280;53766;50.280;19.160;2023-08-01T01:09:16;97653.81;;;21.06;51.72
66857;BME280;53766;50.280;19.160;2023-08-01T01:11:44;97653.00;;;21.06;51.75
66857;BME280;53766;50.280;19.160;2023-08-01T01:14:12;97646.81;;;21.05;51.71
66857;BME280;53766;50.280;19.160;2023-08-01T01:16:40;97644.41;;;21.04;51.72
66857;BME280;53766;50.280;19.160;2023-08-01T01:19:09;97638.00;;;21.05;51.67
66857;BME280;53766;50.280;19.160;2023-08-01T01:21:38;97637.41;;;21.03;51.71
66857;BME280;53766;50.280;19.160;2023-08-01T01:24:26;97630.44;;;21.02;51.85
66857;BME280;53766;50.280;19.160;2023-08-01T01:26:56;97622.66;;;21.00;51.84
66857;BME280;53766;50.280;19.160;2023-08-01T01:29:27;97613.56;;;21.01;51.83
66857;BME280;53766;50.280;19.160;2023-08-01T01:31:57;97609.03;;;21.02;51.82
66857;BME280;53766;50.280;19.160;2023-08-01T01:34:27;97603.69;;;21.02;51.78
66857;BME280;53766;50.280;19.160;2023-08-01T01:36:55;97599.94;;;21.03;51.74
66857;BME280;53766;50.280;19.160;2023-08-01T01:39:22;97593.53;;;21.04;51.76
66857;BME280;53766;50.280;19.160;2023-08-01T01:41:50;97585.50;;;21.04;51.86
66857;BME280;53766;50.280;19.160;2023-08-01T01:44:17;97587.94;;;21.05;51.77
66857;BME280;53766;50.280;19.160;2023-08-01T01:46:45;97583.63;;;21.04;51.63
66857;BME280;53766;50.280;19.160;2023-08-01T01:49:12;97581.78;;;21.05;51.73
66857;BME280;53766;50.280;19.160;2023-08-01T01:51:39;97568.38;;;21.05;51.75
66857;BME280;53766;50.280;19.160;2023-08-01T01:54:07;97572.69;;;21.06;51.63
66857;BME280;53766;50.280;19.160;2023-08-01T01:56:34;97563.25;;;21.03;51.47
66857;BME280;53766;50.280;19.160;2023-08-01T01:59:03;97565.72;;;21.05;51.61
66857;BME280;53766;50.280;19.160;2023-08-01T02:01:30;97557.91;;;21.03;51.64
66857;BME280;53766;50.280;19.160;2023-08-01T02:03:58;97563.25;;;21.03;51.56
66857;BME280;53766;50.280;19.160;2023-08-01T02:06:25;97567.81;;;21.03;51.59
66857;BME280;53766;50.280;19.160;2023-08-01T02:08:54;97560.84;;;21.02;51.49
66857;BME280;53766;50.280;19.160;2023-08-01T02:11:21;97566.78;;;21.04;51.46
66857;BME280;53766;50.280;19.160;2023-08-01T02:13:49;97565.38;;;21.01;51.48
66857;BME280;53766;50.280;19.160;2023-08-01T02:16:16;97552.25;;;21.00;51.45
66857;BME280;53766;50.280;19.160;2023-08-01T02:18:44;97549.56;;;21.00;51.44
66857;BME280;53766;50.280;19.160;2023-08-01T02:21:11;97549.00;;;20.98;51.39
66857;BME280;53766;50.280;19.160;2023-08-01T02:23:39;97547.94;;;20.99;51.35
66857;BME280;53766;50.280;19.160;2023-08-01T02:26:06;97544.44;;;20.98;51.47
66857;BME280;53766;50.280;19.160;2023-08-01T02:28:35;97539.31;;;20.96;51.40
66857;BME280;53766;50.280;19.160;2023-08-01T02:31:03;97536.66;;;20.96;51.36
66857;BME280;53766;50.280;19.160;2023-08-01T02:33:30;97537.72;;;20.95;51.39
66857;BME280;53766;50.280;19.160;2023-08-01T02:35:58;97535.03;;;20.95;51.28
66857;BME280;53766;50.280;19.160;2023-08-01T02:38:25;97528.06;;;20.94;51.23
66857;BME280;53766;50.280;19.160;2023-08-01T02:40:53;97530.16;;;20.92;51.25
66857;BME280;53766;50.280;19.160;2023-08-01T02:43:20;97531.00;;;20.93;51.18
66857;BME280;53766;50.280;19.160;2023-08-01T02:45:48;97527.47;;;20.92;51.36
66857;BME280;53766;50.280;19.160;2023-08-01T02:48:16;97523.19;;;20.91;51.27
66857;BME280;53766;50.280;19.160;2023-08-01T02:50:46;97521.56;;;20.90;51.28
66857;BME280;53766;50.280;19.160;2023-08-01T02:53:14;97519.16;;;20.89;51.18
66857;BME280;53766;50.280;19.160;2023-08-01T02:55:42;97517.50;;;20.88;51.15
66857;BME280;53766;50.280;19.160;2023-08-01T02:58:10;97523.13;;;20.86;51.18
66857;BME280;53766;50.280;19.160;2023-08-01T03:00:38;97513.44;;;20.85;51.27
66857;BME280;53766;50.280;19.160;2023-08-01T03:03:06;97513.44;;;20.85;51.12
66857;BME280;53766;50.280;19.160;2023-08-01T03:05:37;97511.28;;;20.82;51.15
66857;BME280;53766;50.280;19.160;2023-08-01T03:08:05;97519.31;;;20.82;51.18
66857;BME280;53766;50.280;19.160;2023-08-01T03:10:32;97516.06;;;20.80;51.10
66857;BME280;53766;50.280;19.160;2023-08-01T03:13:03;97513.38;;;20.80;51.23
66857;BME280;53766;50.280;19.160;2023-08-01T03:15:31;97511.75;;;20.79;51.31
66857;BME280;53766;50.280;19.160;2023-08-01T03:17:59;97509.56;;;20.76;51.29
66857;BME280;53766;50.280;19.160;2023-08-01T03:20:26;97499.66;;;20.77;51.13
66857;BME280;53766;50.280;19.160;2023-08-01T03:22:54;97505.00;;;20.77;51.27
66857;BME280;53766;50.280;19.160;2023-08-01T03:25:21;97498.84;;;20.76;51.36
66857;BME280;53766;50.280;19.160;2023-08-01T03:27:49;97498.84;;;20.76;51.18
66857;BME280;53766;50.280;19.160;2023-08-01T03:30:16;97491.88;;;20.75;51.18
66857;BME280;53766;50.280;19.160;2023-08-01T03:32:44;97486.50;;;20.75;51.20
66857;BME280;53766;50.280;19.160;2023-08-01T03:35:12;97489.44;;;20.73;51.29
66857;BME280;53766;50.280;19.160;2023-08-01T03:37:41;97488.16;;;20.76;51.24
66857;BME280;53766;50.280;19.160;2023-08-01T03:40:08;97480.34;;;20.74;51.18
66857;BME280;53766;50.280;19.160;2023-08-01T03:42:37;97481.16;;;20.75;51.20
66857;BME280;53766;50.280;19.160;2023-08-01T03:45:05;97476.66;;;20.75;51.09
66857;BME280;53766;50.280;19.160;2023-08-01T03:47:32;97476.66;;;20.75;51.17
66857;BME280;53766;50.280;19.160;2023-08-01T03:50:00;97475.81;;;20.75;51.25
66857;BME280;53766;50.280;19.160;2023-08-01T03:52:28;97477.44;;;20.76;51.10
66857;BME280;53766;50.280;19.160;2023-08-01T03:54:55;97480.34;;;20.74;51.12
66857;BME280;53766;50.280;19.160;2023-08-01T03:57:23;97480.13;;;20.76;51.22
66857;BME280;53766;50.280;19.160;2023-08-01T03:59:53;97488.16;;;20.76;51.07
66857;BME280;53766;50.280;19.160;2023-08-01T04:02:21;97484.41;;;20.77;51.06
66857;BME280;53766;50.280;19.160;2023-08-01T04:04:49;97483.84;;;20.75;50.92
66857;BME280;53766;50.280;19.160;2023-08-01T04:07:16;97480.94;;;20.77;51.08
66857;BME280;53766;50.280;19.160;2023-08-01T04:09:44;97477.44;;;20.76;50.97
66857;BME280;53766;50.280;19.160;2023-08-01T04:12:12;97473.72;;;20.77;51.09
66857;BME280;53766;50.280;19.160;2023-08-01T04:14:39;97470.00;;;20.78;51.14
66857;BME280;53766;50.280;19.160;2023-08-01T04:17:07;97473.72;;;20.77;51.12
66857;BME280;53766;50.280;19.160;2023-08-01T04:19:34;97470.78;;;20.79;51.05
66857;BME280;53766;50.280;19.160;2023-08-01T04:22:02;97473.25;;;20.80;51.11
66857;BME280;53766;50.280;19.160;2023-08-01T04:24:29;97473.25;;;20.80;51.23
66857;BME280;53766;50.280;19.160;2023-08-01T04:26:58;97464.16;;;20.81;51.22
66857;BME280;53766;50.280;19.160;2023-08-01T04:29:25;97464.16;;;20.81;51.08
66857;BME280;53766;50.280;19.160;2023-08-01T04:31:53;97463.34;;;20.81;51.42
66857;BME280;53766;50.280;19.160;2023-08-01T04:34:20;97459.84;;;20.80;51.36
66857;BME280;53766;50.280;19.160;2023-08-01T04:36:48;97451.84;;;20.80;51.26
66857;BME280;53766;50.280;19.160;2023-08-01T04:39:16;97452.63;;;20.81;51.34
66857;BME280;53766;50.280;19.160;2023-08-01T04:41:43;97458.78;;;20.81;51.22
66857;BME280;53766;50.280;19.160;2023-08-01T04:44:11;97453.44;;;20.81;51.33
66857;BME280;53766;50.280;19.160;2023-08-01T04:46:38;97458.78;;;20.81;51.34
66857;BME280;53766;50.280;19.160;2023-08-01T04:49:06;97461.22;;;20.83;51.24
66857;BME280;53766;50.280;19.160;2023-08-01T04:51:34;97459.38;;;20.83;51.45
66857;BME280;53766;50.280;19.160;2023-08-01T04:54:01;97452.97;;;20.84;51.33
66857;BME280;53766;50.280;19.160;2023-08-01T04:56:29;97456.22;;;20.86;51.36
66857;BME280;53766;50.280;19.160;2023-08-01T04:58:56;97455.38;;;20.86;51.43
66857;BME280;53766;50.280;19.160;2023-08-01T05:01:24;97458.38;;;20.89;51.27
66857;BME280;53766;50.280;19.160;2023-08-01T05:03:51;97448.75;;;20.88;51.41
66857;BME280;53766;50.280;19.160;2023-08-01T05:06:19;97447.13;;;20.87;51.46
66857;BME280;53766;50.280;19.160;2023-08-01T05:08:46;97444.44;;;20.87;51.52
66857;BME280;53766;50.280;19.160;2023-08-01T05:11:14;97456.78;;;20.88;51.58
66857;BME280;53766;50.280;19.160;2023-08-01T05:13:41;97457.81;;;20.87;51.74
66857;BME280;53766;50.280;19.160;2023-08-01T05:16:09;97450.88;;;20.86;51.69
66857;BME280;53766;50.280;19.160;2023-08-01T05:18:36;97457.81;;;20.87;51.84
66857;BME280;53766;50.280;19.160;2023-08-01T05:21:04;97454.34;;;20.87;51.96
66857;BME280;53766;50.280;19.160;2023-08-01T05:23:31;97456.22;;;20.86;51.75
66857;BME280;53766;50.280;19.160;2023-08-01T05:25:59;97456.22;;;20.86;51.85
66857;BME280;53766;50.280;19.160;2023-08-01T05:28:26;97444.69;;;20.86;51.88
66857;BME280;53766;50.280;19.160;2023-08-01T05:30:54;97448.19;;;20.86;51.84
66857;BME280;53766;50.280;19.160;2023-08-01T05:33:21;97450.88;;;20.86;51.97
66857;BME280;53766;50.280;19.160;2023-08-01T05:35:50;97441.75;;;20.87;52.00
66857;BME280;53766;50.280;19.160;2023-08-01T05:38:17;97442.84;;;20.86;51.85
66857;BME280;53766;50.280;19.160;2023-08-01T05:40:45;97447.13;;;20.87;51.93
66857;BME280;53766;50.280;19.160;2023-08-01T05:43:12;97446.31;;;20.87;52.04
66857;BME280;53766;50.280;19.160;2023-08-01T05:45:40;97451.44;;;20.88;52.04
66857;BME280;53766;50.280;19.160;2023-08-01T05:48:07;97448.75;;;20.88;52.26
66857;BME280;53766;50.280;19.160;2023-08-01T05:50:35;97458.16;;;20.91;52.32
66857;BME280;53766;50.280;19.160;2023-08-01T05:53:02;97453.59;;;20.91;52.44
66857;BME280;53766;50.280;19.160;2023-08-01T05:55:30;97446.38;;;20.92;52.58
66857;BME280;53766;50.280;19.160;2023-08-01T05:57:57;97461.41;;;20.93;52.79
66857;BME280;53766;50.280;19.160;2023-08-01T06:00:25;97460.09;;;20.95;52.64
66857;BME280;53766;50.280;19.160;2023-08-01T06:02:53;97456.34;;;20.96;52.82
66857;BME280;53766;50.280;19.160;2023-08-01T06:05:22;97451.84;;;20.97;52.58
66857;BME280;53766;50.280;19.160;2023-08-01T06:07:49;97452.63;;;20.98;52.77
66857;BME280;53766;50.280;19.160;2023-08-01T06:10:17;97452.63;;;20.98;52.93
66857;BME280;53766;50.280;19.160;2023-08-01T06:12:44;97455.06;;;20.99;52.92
66857;BME280;53766;50.280;19.160;2023-08-01T06:15:12;97453.22;;;21.00;52.97
66857;BME280;53766;50.280;19.160;2023-08-01T06:17:39;97457.50;;;21.01;53.09
66857;BME280;53766;50.280;19.160;2023-08-01T06:20:07;97459.13;;;21.02;53.20
66857;BME280;53766;50.280;19.160;2023-08-01T06:22:35;97448.41;;;21.02;53.18
66857;BME280;53766;50.280;19.160;2023-08-01T06:25:03;97453.78;;;21.02;53.16
66857;BME280;53766;50.280;19.160;2023-08-01T06:27:31;97461.81;;;21.02;53.22
66857;BME280;53766;50.280;19.160;2023-08-01T06:29:58;97448.41;;;21.02;53.34
66857;BME280;53766;50.280;19.160;2023-08-01T06:32:26;97443.06;;;21.02;53.60
66857;BME280;53766;50.280;19.160;2023-08-01T06:34:54;97443.06;;;21.02;53.74
66857;BME280;53766;50.280;19.160;2023-08-01T06:37:21;97438.50;;;21.02;53.51
66857;BME280;53766;50.280;19.160;2023-08-01T06:39:49;97442.00;;;21.03;53.61
66857;BME280;53766;50.280;19.160;2023-08-01T06:42:16;97428.63;;;21.03;53.78
66857;BME280;53766;50.280;19.160;2023-08-01T06:44:45;97424.91;;;21.04;53.70
66857;BME280;53766;50.280;19.160;2023-08-01T06:47:13;97425.69;;;21.04;53.99
66857;BME280;53766;50.280;19.160;2023-08-01T06:49:41;97421.94;;;21.05;54.05
66857;BME280;53766;50.280;19.160;2023-08-01T06:52:08;97415.56;;;21.06;54.12
66857;BME280;53766;50.280;19.160;2023-08-01T06:54:36;97416.34;;;21.07;54.02
66857;BME280;53766;50.280;19.160;2023-08-01T06:57:06;97417.16;;;21.07;54.24
66857;BME280;53766;50.280;19.160;2023-08-01T06:59:34;97416.94;;;21.09;54.22
66857;BME280;53766;50.280;19.160;2023-08-01T07:02:01;97411.56;;;21.09;54.24
66857;BME280;53766;50.280;19.160;2023-08-01T07:04:29;97409.47;;;21.11;54.50
66857;BME280;53766;50.280;19.160;2023-08-01T07:06:57;97407.34;;;21.13;54.48
66857;BME280;53766;50.280;19.160;2023-08-01T07:09:24;97412.69;;;21.13;54.52
66857;BME280;53766;50.280;19.160;2023-08-01T07:11:52;97413.50;;;21.13;54.75
66857;BME280;53766;50.280;19.160;2023-08-01T07:14:19;97398.25;;;21.14;54.72
66857;BME280;53766;50.280;19.160;2023-08-01T07:16:47;97407.34;;;21.13;54.74
66857;BME280;53766;50.280;19.160;2023-08-01T07:19:14;97402.56;;;21.15;54.50
66857;BME280;53766;50.280;19.160;2023-08-01T07:21:42;97396.13;;;21.16;54.86
66857;BME280;53766;50.280;19.160;2023-08-01T07:24:11;97388.66;;;21.18;54.64
66857;BME280;53766;50.280;19.160;2023-08-01T07:26:41;97390.31;;;21.19;54.33
66857;BME280;53766;50.280;19.160;2023-08-01T07:29:09;97389.22;;;21.20;54.98
66857;BME280;53766;50.280;19.160;2023-08-01T07:31:37;97387.13;;;21.22;55.25
66857;BME280;53766;50.280;19.160;2023-08-01T07:34:05;97389.31;;;21.25;54.49
66857;BME280;53766;50.280;19.160;2023-08-01T07:36:33;97385.56;;;21.26;54.32
66857;BME280;53766;50.280;19.160;2023-08-01T07:39:00;97380.22;;;21.26;54.67
66857;BME280;53766;50.280;19.160;2023-08-01T07:41:28;97381.81;;;21.27;55.10
66857;BME280;53766;50.280;19.160;2023-08-01T07:43:56;97382.38;;;21.29;54.87
66857;BME280;53766;50.280;19.160;2023-08-01T07:46:23;97375.97;;;21.30;54.30
66857;BME280;53766;50.280;19.160;2023-08-01T07:48:51;97382.94;;;21.31;55.36
66857;BME280;53766;50.280;19.160;2023-08-01T07:51:20;97377.34;;;21.33;55.16
66857;BME280;53766;50.280;19.160;2023-08-01T07:53:51;97379.78;;;21.34;55.09
66857;BME280;53766;50.280;19.160;2023-08-01T07:56:19;97384.06;;;21.35;54.86
66857;BME280;53766;50.280;19.160;2023-08-01T07:58:47;97378.72;;;21.35;54.84
66857;BME280;53766;50.280;19.160;2023-08-01T08:01:14;97383.84;;;21.37;54.75
66857;BME280;53766;50.280;19.160;2023-08-01T08:03:42;97384.63;;;21.37;55.16
66857;BME280;53766;50.280;19.160;2023-08-01T08:06:09;97383.59;;;21.39;54.94
66857;BME280;53766;50.280;19.160;2023-08-01T08:08:37;97385.19;;;21.40;55.08
66857;BME280;53766;50.280;19.160;2023-08-01T08:11:05;97379.84;;;21.40;55.31
66857;BME280;53766;50.280;19.160;2023-08-01T08:13:32;97386.84;;;21.41;55.23
66857;BME280;53766;50.280;19.160;2023-08-01T08:16:00;97393.81;;;21.42;55.38
66857;BME280;53766;50.280;19.160;2023-08-01T08:18:28;97388.47;;;21.42;55.58
66857;BME280;53766;50.280;19.160;2023-08-01T08:20:55;97388.47;;;21.42;55.80
66857;BME280;53766;50.280;19.160;2023-08-01T08:23:23;97385.78;;;21.42;56.54
66857;BME280;53766;50.280;19.160;2023-08-01T08:25:50;97387.16;;;21.44;55.72
66857;BME280;53766;50.280;19.160;2023-08-01T08:28:30;97388.78;;;21.45;56.34
66857;BME280;53766;50.280;19.160;2023-08-01T08:31:01;97380.50;;;21.47;56.31
66857;BME280;53766;50.280;19.160;2023-08-01T08:33:30;97366.84;;;21.48;55.86
66857;BME280;53766;50.280;19.160;2023-08-01T08:35:57;97371.97;;;21.50;55.85
66857;BME280;53766;50.280;19.160;2023-08-01T08:38:25;97369.28;;;21.50;56.14
66857;BME280;53766;50.280;19.160;2023-08-01T08:41:08;97377.88;;;21.52;56.13
66857;BME280;53766;50.280;19.160;2023-08-01T08:43:37;97375.22;;;21.52;56.11
66857;BME280;53766;50.280;19.160;2023-08-01T08:46:05;97375.78;;;21.54;56.01
66857;BME280;53766;50.280;19.160;2023-08-01T08:48:33;97373.09;;;21.54;56.38
66857;BME280;53766;50.280;19.160;2023-08-01T08:51:02;97375.78;;;21.54;56.50
66857;BME280;53766;50.280;19.160;2023-08-01T08:53:31;97373.09;;;21.54;57.12
66857;BME280;53766;50.280;19.160;2023-08-01T08:56:01;97374.69;;;21.55;56.74
66857;BME280;53766;50.280;19.160;2023-08-01T08:58:30;97373.91;;;21.54;56.41
66857;BME280;53766;50.280;19.160;2023-08-01T09:01:00;97379.00;;;21.56;56.67
66857;BME280;53766;50.280;19.160;2023-08-01T09:03:29;97373.66;;;21.56;57.08
66857;BME280;53766;50.280;19.160;2023-08-01T09:06:04;97368.28;;;21.56;56.94
66857;BME280;53766;50.280;19.160;2023-08-01T09:08:35;97359.19;;;21.57;56.74
66857;BME280;53766;50.280;19.160;2023-08-01T09:11:03;97352.78;;;21.58;56.55
66857;BME280;53766;50.280;19.160;2023-08-01T09:13:32;97350.91;;;21.59;56.61
66857;BME280;53766;50.280;19.160;2023-08-01T09:16:01;97357.06;;;21.59;56.81
66857;BME280;53766;50.280;19.160;2023-08-01T09:18:30;97353.34;;;21.60;56.71
66857;BME280;53766;50.280;19.160;2023-08-01T09:20:58;97345.31;;;21.60;56.56
66857;BME280;53766;50.280;19.160;2023-08-01T09:23:30;97338.88;;;21.61;56.98
66857;BME280;53766;50.280;19.160;2023-08-01T09:25:58;97345.84;;;21.62;56.99
66857;BME280;53766;50.280;19.160;2023-08-01T09:28:27;97337.78;;;21.62;56.71
66857;BME280;53766;50.280;19.160;2023-08-01T09:30:55;97339.44;;;21.63;57.10
66857;BME280;53766;50.280;19.160;2023-08-01T09:33:25;97331.41;;;21.63;56.96
66857;BME280;53766;50.280;19.160;2023-08-01T09:35:52;97334.63;;;21.65;56.92
66857;BME280;53766;50.280;19.160;2023-08-01T09:38:21;97329.28;;;21.65;57.42
66857;BME280;53766;50.280;19.160;2023-08-01T09:40:48;97322.84;;;21.66;57.66
66857;BME280;53766;50.280;19.160;2023-08-01T09:43:16;97325.28;;;21.68;57.54
66857;BME280;53766;50.280;19.160;2023-08-01T09:45:53;97318.03;;;21.68;57.40
66857;BME280;53766;50.280;19.160;2023-08-01T09:48:23;97315.69;;;21.72;57.37
66857;BME280;53766;50.280;19.160;2023-08-01T09:51:02;97313.78;;;21.72;57.47
66857;BME280;53766;50.280;19.160;2023-08-01T09:53:31;97311.91;;;21.73;57.36
66857;BME280;53766;50.280;19.160;2023-08-01T09:56:02;97307.38;;;21.73;57.38
66857;BME280;53766;50.280;19.160;2023-08-01T09:58:32;97295.59;;;21.74;58.15
66857;BME280;53766;50.280;19.160;2023-08-01T10:01:01;97297.22;;;21.75;57.87
66857;BME280;53766;50.280;19.160;2023-08-01T10:03:29;97297.22;;;21.75;57.96
66857;BME280;53766;50.280;19.160;2023-08-01T10:05:58;97285.69;;;21.75;57.94
66857;BME280;53766;50.280;19.160;2023-08-01T10:08:28;97296.41;;;21.75;58.53
66857;BME280;53766;50.280;19.160;2023-08-01T10:10:56;97292.66;;;21.76;57.82
66857;BME280;53766;50.280;19.160;2023-08-01T10:13:24;97297.22;;;21.75;58.02
66857;BME280;53766;50.280;19.160;2023-08-01T10:15:52;97288.34;;;21.75;57.65
66857;BME280;53766;50.280;19.160;2023-08-01T10:18:20;97291.88;;;21.75;57.73
66857;BME280;53766;50.280;19.160;2023-08-01T10:20:48;97287.56;;;21.74;58.06
66857;BME280;53766;50.280;19.160;2023-08-01T10:23:16;97284.88;;;21.74;58.28
66857;BME280;53766;50.280;19.160;2023-08-01T10:25:45;97283.81;;;21.75;58.49
66857;BME280;53766;50.280;19.160;2023-08-01T10:28:13;97286.50;;;21.75;58.35
66857;BME280;53766;50.280;19.160;2023-08-01T10:30:40;97283.81;;;21.75;58.12
66857;BME280;53766;50.280;19.160;2023-08-01T10:33:08;97284.88;;;21.74;57.90
66857;BME280;53766;50.280;19.160;2023-08-01T10:35:40;97286.50;;;21.75;58.82
66857;BME280;53766;50.280;19.160;2023-08-01T10:38:10;97293.47;;;21.76;58.85
66857;BME280;53766;50.280;19.160;2023-08-01T10:40:42;97304.44;;;21.75;58.64
66857;BME280;53766;50.280;19.160;2023-08-01T10:43:23;97300.94;;;21.74;58.75
66857;BME280;53766;50.280;19.160;2023-08-01T10:46:03;97316.22;;;21.74;58.58
66857;BME280;53766;50.280;19.160;2023-08-01T10:48:32;97320.78;;;21.73;57.37
66857;BME280;53766;50.280;19.160;2023-08-01T10:51:00;97312.19;;;21.71;57.59
66857;BME280;53766;50.280;19.160;2023-08-01T10:53:38;97313.22;;;21.70;57.61
66857;BME280;53766;50.280;19.160;2023-08-01T10:56:19;97313.50;;;21.69;57.71
66857;BME280;53766;50.280;19.160;2023-08-01T10:58:47;97315.34;;;21.68;57.71
66857;BME280;53766;50.280;19.160;2023-08-01T11:01:15;97314.81;;;21.66;57.70
66857;BME280;53766;50.280;19.160;2023-08-01T11:03:43;97313.19;;;21.65;57.37
66857;BME280;53766;50.280;19.160;2023-08-01T11:06:11;97316.91;;;21.64;57.83
66857;BME280;53766;50.280;19.160;2023-08-01T11:08:40;97318.00;;;21.63;57.45
66857;BME280;53766;50.280;19.160;2023-08-01T11:11:11;97314.50;;;21.63;57.72
66857;BME280;53766;50.280;19.160;2023-08-01T11:13:50;97309.41;;;21.61;57.71
66857;BME280;53766;50.280;19.160;2023-08-01T11:16:18;97317.44;;;21.61;57.70
66857;BME280;53766;50.280;19.160;2023-08-01T11:18:45;97311.53;;;21.59;57.91
66857;BME280;53766;50.280;19.160;2023-08-01T11:21:25;97314.19;;;21.59;58.05
66857;BME280;53766;50.280;19.160;2023-08-01T11:23:52;97315.28;;;21.58;57.84
66857;BME280;53766;50.280;19.160;2023-08-01T11:26:20;97313.06;;;21.55;58.02
66857;BME280;53766;50.280;19.160;2023-08-01T11:28:48;97328.34;;;21.54;58.70
66857;BME280;53766;50.280;19.160;2023-08-01T11:31:15;97320.31;;;21.54;58.39
66857;BME280;53766;50.280;19.160;2023-08-01T11:33:55;97320.31;;;21.54;58.75
66857;BME280;53766;50.280;19.160;2023-08-01T11:36:26;97319.50;;;21.54;58.93
66857;BME280;53766;50.280;19.160;2023-08-01T11:38:58;97325.91;;;21.53;58.83
66857;BME280;53766;50.280;19.160;2023-08-01T11:41:27;97325.91;;;21.53;59.19
66857;BME280;53766;50.280;19.160;2023-08-01T11:44:00;97319.75;;;21.52;59.38
66857;BME280;53766;50.280;19.160;2023-08-01T11:46:32;97317.31;;;21.51;59.38
66857;BME280;53766;50.280;19.160;2023-08-01T11:49:00;97327.00;;;21.52;59.66
66857;BME280;53766;50.280;19.160;2023-08-01T11:51:28;97313.59;;;21.52;59.72
66857;BME280;53766;50.280;19.160;2023-08-01T11:54:03;97312.78;;;21.51;59.77
66857;BME280;53766;50.280;19.160;2023-08-01T11:56:31;97314.63;;;21.51;59.79
66857;BME280;53766;50.280;19.160;2023-08-01T11:58:59;97318.94;;;21.52;59.78
66857;BME280;53766;50.280;19.160;2023-08-01T12:01:26;97304.75;;;21.51;60.11
66857;BME280;53766;50.280;19.160;2023-08-01T12:03:56;97287.84;;;21.51;60.28
66857;BME280;53766;50.280;19.160;2023-08-01T12:06:25;97293.22;;;21.51;60.60
66857;BME280;53766;50.280;19.160;2023-08-01T12:08:53;97305.00;;;21.50;60.55
66857;BME280;53766;50.280;19.160;2023-08-01T12:11:25;97291.59;;;21.50;60.87
66857;BME280;53766;50.280;19.160;2023-08-01T12:14:19;97304.19;;;21.49;60.91
66857;BME280;53766;50.280;19.160;2023-08-01T12:16:47;97303.38;;;21.49;60.98
66857;BME280;53766;50.280;19.160;2023-08-01T12:19:19;97293.72;;;21.48;61.14
66857;BME280;53766;50.280;19.160;2023-08-01T12:21:47;97296.41;;;21.48;60.97
66857;BME280;53766;50.280;19.160;2023-08-01T12:24:15;97298.00;;;21.49;61.18
66857;BME280;53766;50.280;19.160;2023-08-01T12:26:43;97298.00;;;21.49;61.24
66857;BME280;53766;50.280;19.160;2023-08-01T12:29:11;97294.75;;;21.47;61.17
66857;BME280;53766;50.280;19.160;2023-08-01T12:31:39;97301.75;;;21.48;61.32
66857;BME280;53766;50.280;19.160;2023-08-01T12:34:07;97307.13;;;21.48;61.58
66857;BME280;53766;50.280;19.160;2023-08-01T12:36:34;97300.13;;;21.47;61.43
66857;BME280;53766;50.280;19.160;2023-08-01T12:39:02;97295.59;;;21.47;61.36
66857;BME280;53766;50.280;19.160;2023-08-01T12:41:30;97293.16;;;21.46;61.63
66857;BME280;53766;50.280;19.160;2023-08-01T12:43:58;97291.03;;;21.48;61.76
66857;BME280;53766;50.280;19.160;2023-08-01T12:46:25;97293.16;;;21.46;61.72
66857;BME280;53766;50.280;19.160;2023-08-01T12:48:53;97287.81;;;21.46;61.61
66857;BME280;53766;50.280;19.160;2023-08-01T12:51:20;97289.69;;;21.45;61.62
66857;BME280;53766;50.280;19.160;2023-08-01T12:53:48;97288.84;;;21.45;61.87
66857;BME280;53766;50.280;19.160;2023-08-01T12:56:16;97304.91;;;21.45;61.55